Miller Park, Virginia
Current Conditions -  °F | °C
As of 2:54 PM on Monday 24 Nov 2014 (Local Time) from KLYH Reporting Station
Clear Clear  
Wind Chill: 70°   Ceiling: Unl
Heat Index: 70°   Visibility: 10mi
Dew Point: 52°   Wind: 20mph
Humidity: 53%   Direction: 200°SSW
Pressure: 29.69"   Gusts: 32mph
Location:  37.3527°N, 79.1576°W
Report Text: KLYH 241954Z 20017G28KT 10SM CLR 21/11 A2969 RMK AO2 PK WND 21028/1950 SLP048 T02110111 $
Loading
Personal Weather Stations






























Interactive Weather Map New forecast layout! Learn more

10-Day Weather Forecast

Advertisements
Track Severe Weather on mobile